createdAt,value
2023-04-19T00:02:16.757Z,5.35
2023-04-19T00:04:45.018Z,5.22
2023-04-19T00:07:12.361Z,5.00
2023-04-19T00:09:39.672Z,5.10
2023-04-19T00:12:07.743Z,4.85
2023-04-19T00:14:34.610Z,5.40
2023-04-19T00:17:01.553Z,5.20
2023-04-19T00:19:28.476Z,4.80
2023-04-19T00:21:55.578Z,5.20
2023-04-19T00:24:22.447Z,4.28
2023-04-19T00:26:49.609Z,4.93
2023-04-19T00:29:16.644Z,5.65
2023-04-19T00:31:46.521Z,5.72
2023-04-19T00:34:13.674Z,5.63
2023-04-19T00:36:41.256Z,5.38
2023-04-19T00:39:08.200Z,4.82
2023-04-19T00:41:35.216Z,5.50
2023-04-19T00:44:02.061Z,5.32
2023-04-19T00:46:29.182Z,6.28
2023-04-19T00:48:56.631Z,5.57
2023-04-19T00:51:23.739Z,5.68
2023-04-19T00:53:50.825Z,5.60
2023-04-19T00:56:19.162Z,5.60
2023-04-19T00:58:46.642Z,6.18
2023-04-19T01:01:13.889Z,5.65
2023-04-19T01:03:41.058Z,5.43
2023-04-19T01:06:08.177Z,5.80
2023-04-19T01:08:35.026Z,5.88
2023-04-19T01:11:02.471Z,5.80
2023-04-19T01:13:29.529Z,5.75
2023-04-19T01:15:57.833Z,5.70
2023-04-19T01:18:25.827Z,5.88
2023-04-19T01:20:53.020Z,5.70
2023-04-19T01:23:19.966Z,6.00
2023-04-19T01:25:48.114Z,5.63
2023-04-19T01:28:15.311Z,7.18
2023-04-19T01:30:42.932Z,5.90
2023-04-19T01:33:09.803Z,6.40
2023-04-19T01:35:36.730Z,6.15
2023-04-19T01:38:03.742Z,6.97
2023-04-19T01:40:31.703Z,6.32
2023-04-19T01:42:58.908Z,7.18
2023-04-19T01:45:25.764Z,7.00
2023-04-19T01:47:52.920Z,7.30
2023-04-19T01:50:20.554Z,6.95
2023-04-19T01:52:47.450Z,6.90
2023-04-19T01:55:14.262Z,7.28
2023-04-19T01:57:41.062Z,7.07
2023-04-19T02:00:09.026Z,6.72
2023-04-19T02:02:37.991Z,6.75
2023-04-19T02:05:08.599Z,7.40
2023-04-19T02:07:35.836Z,6.97
2023-04-19T02:10:02.820Z,6.90
2023-04-19T02:12:31.152Z,8.00
2023-04-19T02:14:59.602Z,7.22
2023-04-19T02:17:26.677Z,7.80
2023-04-19T02:19:53.665Z,7.50
2023-04-19T02:22:20.931Z,7.43
2023-04-19T02:24:50.251Z,7.30
2023-04-19T02:27:17.415Z,8.25
2023-04-19T02:29:44.527Z,7.40
2023-04-19T02:32:14.586Z,7.95
2023-04-19T02:34:41.451Z,7.47
2023-04-19T02:37:08.736Z,7.13
2023-04-19T02:39:35.897Z,7.57
2023-04-19T02:42:03.091Z,7.82
2023-04-19T02:44:30.779Z,8.90
2023-04-19T02:46:58.161Z,7.40
2023-04-19T02:49:25.090Z,8.73
2023-04-19T02:51:53.283Z,7.22
2023-04-19T02:54:20.136Z,7.45
2023-04-19T02:56:47.217Z,8.30
2023-04-19T02:59:14.078Z,8.52
2023-04-19T03:01:41.155Z,7.93
2023-04-19T03:04:08.194Z,8.15
2023-04-19T03:06:35.014Z,9.23
2023-04-19T03:09:01.782Z,8.10
2023-04-19T03:11:28.550Z,9.43
2023-04-19T03:13:55.610Z,9.70
2023-04-19T03:16:22.544Z,9.55
2023-04-19T03:18:49.722Z,9.32
2023-04-19T03:21:16.695Z,9.63
2023-04-19T03:23:43.879Z,9.43
2023-04-19T03:26:10.717Z,9.98
2023-04-19T03:28:37.592Z,9.38
2023-04-19T03:31:04.556Z,9.07
2023-04-19T03:33:31.655Z,8.85
2023-04-19T03:35:58.530Z,9.85
2023-04-19T03:38:25.419Z,9.02
2023-04-19T03:40:52.267Z,9.10
2023-04-19T03:43:20.757Z,8.27
2023-04-19T03:45:47.616Z,9.15
2023-04-19T03:48:14.384Z,9.85
2023-04-19T03:50:41.189Z,9.05
2023-04-19T03:53:08.196Z,9.10
2023-04-19T03:55:35.108Z,9.07
2023-04-19T03:58:02.225Z,9.85
2023-04-19T04:00:29.360Z,11.05
2023-04-19T04:02:56.602Z,10.60
2023-04-19T04:05:23.617Z,9.82
2023-04-19T04:07:50.642Z,10.90
2023-04-19T04:10:18.621Z,10.00
2023-04-19T04:12:45.504Z,10.55
2023-04-19T04:15:12.673Z,11.00
2023-04-19T04:17:39.550Z,9.75
2023-04-19T04:20:09.377Z,9.75
2023-04-19T04:22:36.144Z,10.15
2023-04-19T04:25:03.002Z,10.13
2023-04-19T04:27:29.883Z,9.27
2023-04-19T04:29:57.292Z,10.68
2023-04-19T04:32:24.512Z,10.55
2023-04-19T04:34:51.517Z,10.77
2023-04-19T04:37:18.381Z,10.52
2023-04-19T04:39:45.209Z,10.45
2023-04-19T04:42:12.312Z,10.02
2023-04-19T04:44:39.470Z,10.20
2023-04-19T04:47:06.454Z,11.20
2023-04-19T04:49:33.599Z,11.30
2023-04-19T04:52:00.646Z,10.68
2023-04-19T04:54:27.924Z,10.43
2023-04-19T04:56:54.883Z,10.85
2023-04-19T04:59:21.823Z,10.68
2023-04-19T05:01:48.685Z,11.65
2023-04-19T05:04:16.239Z,11.25
2023-04-19T05:06:44.649Z,10.85
2023-04-19T05:11:52.669Z,12.18
2023-04-19T05:14:20.321Z,11.18
2023-04-19T05:16:47.270Z,11.50
2023-04-19T05:19:14.527Z,11.82
2023-04-19T05:21:41.650Z,11.20
2023-04-19T05:24:10.113Z,12.32
2023-04-19T05:26:38.312Z,10.13
2023-04-19T05:29:05.433Z,10.45
2023-04-19T05:31:32.533Z,11.68
2023-04-19T05:33:59.482Z,10.68
2023-04-19T05:36:31.016Z,11.32
2023-04-19T05:38:58.969Z,9.85
2023-04-19T05:41:26.292Z,11.55
2023-04-19T05:43:53.148Z,11.02
2023-04-19T05:46:20.122Z,10.27
2023-04-19T05:48:47.197Z,11.27
2023-04-19T05:51:14.621Z,10.18
2023-04-19T05:53:41.819Z,11.43
2023-04-19T05:56:09.456Z,12.35
2023-04-19T05:58:37.249Z,11.88
2023-04-19T06:01:04.717Z,11.27
2023-04-19T06:03:32.942Z,12.05
2023-04-19T06:06:00.321Z,11.55
2023-04-19T06:08:27.329Z,10.82
2023-04-19T06:11:00.133Z,11.18
2023-04-19T06:13:31.947Z,12.20
2023-04-19T06:15:59.939Z,11.60
2023-04-19T06:18:27.112Z,11.95
2023-04-19T06:20:54.351Z,12.50
2023-04-19T06:23:21.496Z,10.93
2023-04-19T06:25:50.963Z,10.75
2023-04-19T06:28:18.309Z,11.73
2023-04-19T06:30:45.541Z,12.05
2023-04-19T06:33:12.813Z,11.98
2023-04-19T06:35:39.940Z,12.15
2023-04-19T06:38:07.803Z,11.68
2023-04-19T06:40:36.292Z,11.60
2023-04-19T06:43:03.315Z,11.30
2023-04-19T06:45:32.822Z,11.35
2023-04-19T06:47:59.789Z,11.95
2023-04-19T06:50:27.260Z,10.75
2023-04-19T06:52:54.246Z,11.98
2023-04-19T06:55:21.596Z,11.10
2023-04-19T06:57:50.812Z,11.10
2023-04-19T07:00:18.444Z,11.60
2023-04-19T07:02:45.701Z,11.55
2023-04-19T07:05:13.524Z,10.77
2023-04-19T07:07:41.372Z,10.32
2023-04-19T07:10:09.769Z,10.98
2023-04-19T07:12:36.612Z,10.52
2023-04-19T07:15:03.778Z,11.85
2023-04-19T07:17:30.702Z,10.70
2023-04-19T07:19:57.666Z,10.20
2023-04-19T07:22:24.501Z,10.52
2023-04-19T07:24:52.276Z,10.23
2023-04-19T07:27:19.716Z,10.82
2023-04-19T07:29:46.983Z,11.00
2023-04-19T07:36:10.424Z,11.57
2023-04-19T07:38:37.264Z,9.43
2023-04-19T07:41:05.729Z,11.05
2023-04-19T07:43:32.600Z,10.18
2023-04-19T07:45:59.589Z,10.38
2023-04-19T07:48:26.695Z,10.43
2023-04-19T07:50:53.860Z,10.60
2023-04-19T07:53:20.766Z,10.52
2023-04-19T07:55:47.813Z,10.45
2023-04-19T07:58:15.226Z,10.13
2023-04-19T08:00:42.251Z,10.35
2023-04-19T08:03:09.443Z,9.35
2023-04-19T08:05:36.952Z,10.65
2023-04-19T08:08:04.224Z,9.82
2023-04-19T08:10:33.650Z,10.38
2023-04-19T08:13:05.037Z,11.10
2023-04-19T08:16:05.106Z,10.95
2023-04-19T08:18:21.801Z,10.68
2023-04-19T08:20:48.821Z,10.40
2023-04-19T08:23:24.082Z,10.32
2023-04-19T08:25:54.753Z,11.15
2023-04-19T08:28:21.669Z,10.30
2023-04-19T08:30:49.020Z,10.00
2023-04-19T08:33:16.180Z,10.07
2023-04-19T08:35:43.666Z,9.98
2023-04-19T08:38:10.505Z,10.45
2023-04-19T08:40:44.388Z,9.98
2023-04-19T08:43:11.535Z,10.15
2023-04-19T08:45:39.595Z,10.05
2023-04-19T08:48:09.923Z,9.40
2023-04-19T08:50:51.995Z,10.23
2023-04-19T08:53:25.936Z,10.95
2023-04-19T08:56:12.739Z,8.57
2023-04-19T08:58:57.992Z,7.38
2023-04-19T09:01:34.991Z,6.53
2023-04-19T09:04:26.539Z,6.60
2023-04-19T09:06:56.039Z,6.97
2023-04-19T09:09:37.288Z,7.05
2023-04-19T09:12:18.567Z,7.18
2023-04-19T09:15:01.289Z,7.05
2023-04-19T09:17:29.826Z,6.50
2023-04-19T09:19:56.792Z,7.05
2023-04-19T09:22:24.395Z,7.30
2023-04-19T09:27:34.801Z,6.03
2023-04-19T09:30:03.731Z,6.18
2023-04-19T09:32:49.059Z,5.97
2023-04-19T09:35:16.685Z,6.47
2023-04-19T09:40:28.139Z,6.00
2023-04-19T09:43:08.881Z,6.68
2023-04-19T09:45:47.459Z,6.25
2023-04-19T09:48:14.412Z,6.60
2023-04-19T09:51:13.798Z,6.93
2023-04-19T09:53:43.460Z,4.95
2023-04-19T09:56:13.260Z,3.95
2023-04-19T09:58:49.940Z,3.75
2023-04-19T10:01:22.706Z,3.90
2023-04-19T10:03:51.595Z,3.95
2023-04-19T10:08:56.367Z,3.80
2023-04-19T10:11:25.380Z,4.45
2023-04-19T10:13:57.530Z,3.75
2023-04-19T10:16:25.022Z,5.22
2023-04-19T10:18:52.981Z,4.22
2023-04-19T10:21:21.099Z,4.85
2023-04-19T10:23:48.636Z,4.22
2023-04-19T10:26:15.588Z,3.83
2023-04-19T10:28:42.760Z,4.32
2023-04-19T10:31:33.033Z,4.38
2023-04-19T10:34:00.210Z,6.97
2023-04-19T10:36:29.180Z,4.15
2023-04-19T10:38:56.418Z,3.90
2023-04-19T10:41:23.613Z,4.18
2023-04-19T10:43:57.945Z,4.78
2023-04-19T10:46:26.446Z,4.70
2023-04-19T10:49:03.255Z,4.50
2023-04-19T10:51:36.111Z,4.10
2023-04-19T10:56:41.072Z,4.85
2023-04-19T10:59:13.680Z,4.70
2023-04-19T11:01:55.038Z,4.63
2023-04-19T11:05:04.186Z,4.60
2023-04-19T11:07:37.651Z,4.50
2023-04-19T11:10:04.915Z,3.92
2023-04-19T11:12:31.764Z,4.20
2023-04-19T11:15:00.656Z,4.03
2023-04-19T11:17:31.810Z,4.90
2023-04-19T11:20:02.564Z,4.68
2023-04-19T11:22:34.086Z,5.13
2023-04-19T11:25:22.164Z,3.72
2023-04-19T11:27:52.237Z,4.43
2023-04-19T11:30:23.002Z,4.45
2023-04-19T11:32:56.136Z,4.18
2023-04-19T11:37:53.284Z,3.97
2023-04-19T11:40:22.859Z,4.03
2023-04-19T11:43:01.076Z,3.95
2023-04-19T11:45:33.126Z,3.45
2023-04-19T11:48:05.174Z,4.20
2023-04-19T11:50:40.714Z,3.70
2023-04-19T11:53:24.832Z,3.75
2023-04-19T11:56:12.129Z,3.47
2023-04-19T11:58:49.941Z,4.03
2023-04-19T12:01:22.325Z,3.38
2023-04-19T12:03:52.161Z,4.07
2023-04-19T12:06:23.985Z,3.50
2023-04-19T12:08:52.301Z,3.08
2023-04-19T12:11:24.433Z,3.33
2023-04-19T12:14:10.222Z,3.35
2023-04-19T12:16:37.439Z,3.08
2023-04-19T12:19:19.763Z,3.70
2023-04-19T12:21:47.636Z,2.80
2023-04-19T12:24:18.650Z,2.80
2023-04-19T12:26:57.254Z,2.80
2023-04-19T12:31:56.178Z,2.10
2023-04-19T12:34:23.153Z,1.90
2023-04-19T12:36:50.195Z,2.17
2023-04-19T12:39:18.145Z,2.13
2023-04-19T12:41:45.120Z,1.88
2023-04-19T12:44:12.005Z,2.00
2023-04-19T12:46:39.414Z,2.00
2023-04-19T12:49:06.776Z,2.17
2023-04-19T12:51:33.921Z,2.20
2023-04-19T12:54:02.489Z,2.15
2023-04-19T12:56:29.442Z,1.77
2023-04-19T12:58:56.492Z,2.13
2023-04-19T13:01:23.970Z,1.95
2023-04-19T13:03:50.922Z,1.80
2023-04-19T13:06:18.221Z,1.60
2023-04-19T13:08:47.778Z,2.10
2023-04-19T13:11:17.969Z,1.88
2023-04-19T13:13:44.719Z,1.80
2023-04-19T13:16:11.747Z,1.88
2023-04-19T13:18:38.849Z,1.90
2023-04-19T13:21:08.052Z,1.95
2023-04-19T13:23:35.790Z,1.77
2023-04-19T13:26:02.611Z,1.70
2023-04-19T13:28:30.388Z,1.70
2023-04-19T13:30:57.404Z,1.90
2023-04-19T13:33:27.349Z,1.70
2023-04-19T13:35:54.705Z,1.58
2023-04-19T13:38:21.630Z,1.60
2023-04-19T13:40:48.448Z,1.80
2023-04-19T13:43:15.673Z,1.60
2023-04-19T13:45:42.928Z,1.65
2023-04-19T13:48:09.750Z,1.48
2023-04-19T13:50:39.491Z,1.40
2023-04-19T13:53:06.588Z,1.60
2023-04-19T13:55:41.817Z,1.60
2023-04-19T13:58:08.638Z,1.90
2023-04-19T14:00:35.566Z,1.58
2023-04-19T14:03:02.818Z,1.60
2023-04-19T14:05:30.328Z,1.45
2023-04-19T14:07:58.709Z,1.58
2023-04-19T14:10:25.845Z,1.52
2023-04-19T14:12:53.106Z,1.65
2023-04-19T14:15:21.108Z,1.80
2023-04-19T14:17:48.383Z,2.00
2023-04-19T14:20:16.615Z,1.80
2023-04-19T14:22:46.691Z,1.90
2023-04-19T14:25:15.566Z,1.80
2023-04-19T14:27:42.699Z,1.77
2023-04-19T14:30:10.080Z,1.70
2023-04-19T14:32:37.496Z,2.00
2023-04-19T14:35:05.215Z,1.95
2023-04-19T14:37:32.159Z,1.85
2023-04-19T14:39:59.403Z,2.00
2023-04-19T14:42:26.404Z,1.85
2023-04-19T14:44:53.862Z,1.80
2023-04-19T14:47:21.608Z,1.90
2023-04-19T14:49:48.750Z,2.08
2023-04-19T14:52:16.487Z,1.90
2023-04-19T14:54:51.193Z,2.00
2023-04-19T14:57:18.374Z,2.10
2023-04-19T14:59:45.871Z,2.10
2023-04-19T15:02:13.861Z,2.03
2023-04-19T15:04:41.801Z,1.80
2023-04-19T15:07:11.118Z,1.90
2023-04-19T15:09:39.012Z,2.05
2023-04-19T15:12:06.075Z,2.20
2023-04-19T15:14:32.954Z,2.00
2023-04-19T15:17:00.028Z,1.92
2023-04-19T15:19:26.950Z,2.25
2023-04-19T15:21:53.801Z,2.20
2023-04-19T15:24:20.669Z,1.98
2023-04-19T15:26:47.550Z,1.98
2023-04-19T15:29:14.972Z,2.05
2023-04-19T15:31:42.008Z,2.00
2023-04-19T15:34:09.247Z,2.28
2023-04-19T15:36:36.639Z,2.10
2023-04-19T15:39:03.535Z,2.35
2023-04-19T15:41:30.252Z,2.45
2023-04-19T15:43:57.733Z,2.30
2023-04-19T15:46:24.686Z,2.58
2023-04-19T15:48:51.645Z,2.88
2023-04-19T15:51:18.880Z,3.45
2023-04-19T15:53:45.747Z,2.80
2023-04-19T15:56:13.685Z,2.50
2023-04-19T15:58:44.518Z,2.47
2023-04-19T16:01:13.048Z,2.63
2023-04-19T16:03:48.170Z,2.70
2023-04-19T16:06:17.699Z,3.47
2023-04-19T16:08:44.673Z,3.20
2023-04-19T16:11:11.599Z,2.63
2023-04-19T16:13:39.115Z,2.50
2023-04-19T16:16:06.730Z,2.70
2023-04-19T16:18:34.942Z,2.15
2023-04-19T16:21:01.788Z,2.80
2023-04-19T16:23:28.852Z,2.90
2023-04-19T16:25:56.896Z,2.83
2023-04-19T16:28:24.158Z,2.45
2023-04-19T16:30:51.346Z,2.47
2023-04-19T16:33:38.577Z,2.67
2023-04-19T16:36:28.105Z,2.63
2023-04-19T16:38:55.273Z,2.10
2023-04-19T16:41:22.055Z,2.38
2023-04-19T16:43:49.054Z,2.65
2023-04-19T16:46:16.774Z,3.28
2023-04-19T16:48:43.898Z,2.38
2023-04-19T16:51:13.631Z,2.58
2023-04-19T16:53:40.413Z,2.63
2023-04-19T16:56:07.256Z,2.60
2023-04-19T16:58:34.053Z,2.58
2023-04-19T17:01:02.276Z,2.88
2023-04-19T17:03:32.087Z,2.53
2023-04-19T17:05:59.112Z,2.38
2023-04-19T17:08:26.878Z,2.30
2023-04-19T17:10:56.088Z,2.50
2023-04-19T17:13:23.121Z,2.20
2023-04-19T17:15:50.308Z,2.15
2023-04-19T17:18:17.287Z,2.47
2023-04-19T17:20:44.327Z,3.00
2023-04-19T17:23:11.476Z,2.28
2023-04-19T17:25:38.318Z,2.20
2023-04-19T17:28:06.031Z,2.50
2023-04-19T17:30:33.336Z,3.00
2023-04-19T17:33:00.622Z,2.65
2023-04-19T17:35:30.106Z,2.40
2023-04-19T17:37:56.875Z,2.35
2023-04-19T17:40:23.954Z,2.42
2023-04-19T23:10:14.993Z,3.88
2023-04-19T23:12:41.909Z,4.38
2023-04-19T23:15:10.621Z,4.28
2023-04-19T23:17:39.782Z,3.80
2023-04-19T23:20:10.036Z,4.88
2023-04-19T23:22:37.535Z,3.90
2023-04-19T23:25:04.840Z,4.20
2023-04-19T23:27:32.450Z,4.47
2023-04-19T23:29:59.539Z,5.13
2023-04-19T23:32:26.422Z,4.60
2023-04-19T23:34:53.364Z,5.03
2023-04-19T23:37:20.844Z,4.80
2023-04-19T23:39:47.701Z,5.63
2023-04-19T23:42:15.013Z,5.80
2023-04-19T23:44:43.865Z,7.93
2023-04-19T23:47:11.176Z,7.45
2023-04-19T23:49:37.941Z,6.50
2023-04-19T23:52:04.912Z,6.22
2023-04-19T23:54:31.794Z,8.32
2023-04-19T23:56:59.197Z,7.15
2023-04-19T23:59:29.168Z,5.97
